Time;durP1;ratioP1;P1;durP2;ratioP2;P2;SDS_P1;SDS_P2;PMS_P1;PMS_P2;Temp;Humidity;BMP_temperature;BMP_pressure;BME280_temperature;BME280_humidity;BME280_pressure;Samples;Min_cycle;Max_cycle;Signal;HPM_P1;HPM_P2
2022/04/01 00:00:50;;;;;;;8.48;3.80;;;;;;;;;;5009103;28;20053;-67
2022/04/01 00:03:20;;;;;;;11.23;4.20;;;;;;;;;;5006815;28;20062;-67
2022/04/01 00:05:51;;;;;;;11.40;3.55;;;;;;;;;;5008992;28;20045;-67
2022/04/01 00:08:22;;;;;;;7.82;3.75;;;;;;;;;;5003378;28;20065;-67
2022/04/01 00:10:53;;;;;;;7.45;2.85;;;;;;;;;;4991506;28;20050;-67
2022/04/01 00:13:23;;;;;;;7.95;3.45;;;;;;;;;;5006347;28;20042;-66
2022/04/01 00:15:54;;;;;;;10.23;3.13;;;;;;;;;;5009416;28;20069;-67
2022/04/01 00:18:25;;;;;;;7.22;2.72;;;;;;;;;;4960013;28;20042;-67
2022/04/01 00:20:56;;;;;;;7.75;2.60;;;;;;;;;;5008565;28;20517;-68
2022/04/01 00:23:26;;;;;;;7.40;2.35;;;;;;;;;;4990292;28;20042;-67
2022/04/01 00:25:57;;;;;;;5.22;1.80;;;;;;;;;;4998624;28;20063;-67
2022/04/01 00:28:27;;;;;;;4.90;2.47;;;;;;;;;;4989623;28;20576;-67
2022/04/01 00:30:58;;;;;;;4.45;1.60;;;;;;;;;;5028777;28;20057;-66
2022/04/01 00:33:31;;;;;;;6.85;1.90;;;;;;;;;;4995891;28;20057;-68
2022/04/01 00:36:02;;;;;;;4.75;2.20;;;;;;;;;;5029118;28;20460;-67
2022/04/01 00:38:33;;;;;;;4.03;1.60;;;;;;;;;;4998304;28;20522;-67
2022/04/01 00:41:04;;;;;;;3.90;1.63;;;;;;;;;;4944571;28;20061;-67
2022/04/01 00:43:36;;;;;;;5.95;1.80;;;;;;;;;;4977366;28;20506;-67
2022/04/01 00:46:06;;;;;;;5.28;1.83;;;;;;;;;;4990611;28;20055;-67
2022/04/01 00:48:37;;;;;;;8.02;2.53;;;;;;;;;;4992749;28;20066;-68
2022/04/01 00:51:09;;;;;;;4.75;2.00;;;;;;;;;;4992755;28;20057;-67
2022/04/01 00:53:40;;;;;;;;;;;;;;;;;;4945346;28;20119;-67
2022/04/01 00:56:10;;;;;;;5.72;2.47;;;;;;;;;;4968413;28;19921;-67
2022/04/01 00:58:43;;;;;;;9.55;2.22;;;;;;;;;;4973079;28;20541;-67
2022/04/01 01:01:14;;;;;;;6.75;2.20;;;;;;;;;;4956786;28;20061;-66
2022/04/01 01:03:45;;;;;;;5.60;2.25;;;;;;;;;;4973871;28;20514;-67
2022/04/01 01:06:17;;;;;;;5.45;1.85;;;;;;;;;;4973002;28;20065;-67
2022/04/01 01:08:48;;;;;;;5.20;1.80;;;;;;;;;;4962409;28;20055;-66
2022/04/01 01:11:18;;;;;;;4.00;1.77;;;;;;;;;;4937918;29;20055;-65
2022/04/01 01:13:49;;;;;;;3.08;1.60;;;;;;;;;;4970059;28;20055;-67
2022/04/01 01:16:20;;;;;;;4.25;1.52;;;;;;;;;;4975503;28;20506;-67
2022/04/01 01:19:10;;;;;;;2.83;1.23;;;;;;;;;;4992472;28;20502;-66
2022/04/01 01:21:41;;;;;;;3.30;1.88;;;;;;;;;;4992338;28;20062;-67
2022/04/01 01:24:16;;;;;;;4.75;1.27;;;;;;;;;;4976076;28;20058;-67
2022/04/01 01:26:53;;;;;;;4.80;1.75;;;;;;;;;;4989250;28;20534;-68
2022/04/01 01:29:26;;;;;;;3.67;1.20;;;;;;;;;;4992705;28;20117;-68
2022/04/01 01:32:00;;;;;;;6.28;1.30;;;;;;;;;;4976409;28;20065;-68
2022/04/01 01:34:35;;;;;;;4.50;1.70;;;;;;;;;;4974358;28;20054;-68
2022/04/01 01:37:07;;;;;;;5.30;2.00;;;;;;;;;;4960040;28;20050;-68
2022/04/01 01:39:39;;;;;;;4.03;1.40;;;;;;;;;;4947534;28;20059;-67
2022/04/01 01:42:11;;;;;;;3.90;2.35;;;;;;;;;;4930950;28;20048;-67
2022/04/01 01:44:42;;;;;;;5.15;1.40;;;;;;;;;;4921617;29;20051;-64
2022/04/01 01:47:13;;;;;;;2.90;1.20;;;;;;;;;;4915217;29;20067;-68
2022/04/01 01:54:43;;;;;;;4.93;1.42;;;;;;;;;;4846074;29;20553;-68
2022/04/01 01:55:22;;;;;;;6.93;1.70;;;;;;;;;;4812699;29;20057;-68
2022/04/01 01:57:53;;;;;;;6.85;1.30;;;;;;;;;;4877295;29;20065;-67
2022/04/01 02:00:25;;;;;;;4.18;1.25;;;;;;;;;;4892875;29;20049;-67
2022/04/01 02:02:56;;;;;;;4.72;1.08;;;;;;;;;;4846630;29;20066;-67
2022/04/01 02:05:26;;;;;;;7.22;2.17;;;;;;;;;;4877417;29;20045;-69
2022/04/01 02:07:57;;;;;;;3.65;1.70;;;;;;;;;;4877356;29;20068;-67
2022/04/01 02:10:28;;;;;;;3.20;1.33;;;;;;;;;;4877396;29;20057;-67
2022/04/01 02:12:59;;;;;;;4.80;1.52;;;;;;;;;;4846529;29;20577;-67
2022/04/01 02:15:30;;;;;;;5.38;1.45;;;;;;;;;;4907086;29;20056;-67
2022/04/01 02:18:00;;;;;;;3.20;1.35;;;;;;;;;;4883527;29;20060;-68
2022/04/01 02:20:33;;;;;;;2.83;1.20;;;;;;;;;;4917924;29;20062;-68
2022/04/01 02:23:05;;;;;;;3.63;1.30;;;;;;;;;;4918308;29;20083;-67
2022/04/01 02:25:36;;;;;;;4.30;1.58;;;;;;;;;;4895255;29;20060;-68
2022/04/01 02:28:06;;;;;;;4.80;1.35;;;;;;;;;;4877039;29;20049;-68
2022/04/01 02:30:40;;;;;;;4.07;1.95;;;;;;;;;;4858414;29;20645;-68
2022/04/01 02:33:30;;;;;;;5.22;1.50;;;;;;;;;;4876681;29;20057;-67
2022/04/01 02:36:04;;;;;;;6.25;1.50;;;;;;;;;;4927571;29;20059;-67
2022/04/01 02:38:35;;;;;;;6.45;1.58;;;;;;;;;;4938621;28;20043;-68
2022/04/01 02:41:06;;;;;;;3.10;1.20;;;;;;;;;;4924434;28;20058;-69
2022/04/01 02:43:39;;;;;;;5.50;1.30;;;;;;;;;;4952218;29;20051;-67
2022/04/01 02:46:10;;;;;;;3.17;1.20;;;;;;;;;;4905270;29;20068;-68
2022/04/01 02:48:49;;;;;;;2.38;1.08;;;;;;;;;;4952547;29;20047;-68
2022/04/01 02:51:19;;;;;;;4.88;1.25;;;;;;;;;;4952905;28;20541;-68
2022/04/01 02:53:52;;;;;;;6.47;1.90;;;;;;;;;;4901595;29;20172;-68
2022/04/01 02:56:23;;;;;;;4.18;2.00;;;;;;;;;;4951858;29;20119;-67
2022/04/01 02:58:53;;;;;;;3.13;1.40;;;;;;;;;;4874398;29;20052;-68
2022/04/01 03:01:25;;;;;;;3.20;1.33;;;;;;;;;;4917594;29;20536;-67
2022/04/01 03:03:56;;;;;;;4.88;1.73;;;;;;;;;;4906943;29;20060;-66
2022/04/01 03:06:33;;;;;;;2.28;1.33;;;;;;;;;;4864787;29;20053;-67
2022/04/01 03:09:03;;;;;;;3.15;1.52;;;;;;;;;;4842239;29;20198;-67
2022/04/01 03:11:38;;;;;;;7.35;1.83;;;;;;;;;;4854096;29;20057;-68
2022/04/01 03:14:16;;;;;;;6.90;1.90;;;;;;;;;;4838860;29;20066;-67
2022/04/01 03:17:06;;;;;;;3.20;1.15;;;;;;;;;;4850572;29;20061;-67
2022/04/01 03:19:39;;;;;;;8.55;2.00;;;;;;;;;;4860139;29;20540;-67
2022/04/01 03:22:10;;;;;;;2.95;1.27;;;;;;;;;;4857890;29;20548;-68
2022/04/01 03:24:42;;;;;;;5.93;1.33;;;;;;;;;;4894498;29;20056;-67
2022/04/01 03:27:13;;;;;;;3.58;1.42;;;;;;;;;;4894763;29;20429;-68
2022/04/01 03:29:43;;;;;;;2.85;1.30;;;;;;;;;;4894268;29;20048;-68
2022/04/01 03:32:15;;;;;;;4.65;1.40;;;;;;;;;;4894490;29;20048;-68
2022/04/01 03:34:47;;;;;;;2.97;1.30;;;;;;;;;;4928420;29;20406;-68
2022/04/01 03:37:17;;;;;;;3.58;2.00;;;;;;;;;;4898080;29;20064;-67
2022/04/01 03:39:49;;;;;;;4.15;1.48;;;;;;;;;;4890672;29;20548;-69
2022/04/01 03:42:20;;;;;;;2.65;1.25;;;;;;;;;;4852073;29;20054;-67
2022/04/01 03:44:51;;;;;;;3.88;1.30;;;;;;;;;;4875642;29;20528;-67
2022/04/01 03:47:45;;;;;;;4.45;1.55;;;;;;;;;;4856510;29;20060;-67
2022/04/01 03:50:21;;;;;;;4.00;1.42;;;;;;;;;;4875600;29;20053;-68
2022/04/01 03:52:57;;;;;;;3.08;1.20;;;;;;;;;;4847103;29;20053;-68
2022/04/01 03:55:32;;;;;;;8.23;1.77;;;;;;;;;;4855465;29;20046;-68
2022/04/01 03:58:28;;;;;;;6.50;1.40;;;;;;;;;;4838628;29;20054;-68
2022/04/01 04:01:08;;;;;;;6.50;1.70;;;;;;;;;;4852831;29;20064;-68
2022/04/01 04:03:40;;;;;;;6.80;1.90;;;;;;;;;;4894174;29;20064;-67
2022/04/01 04:06:12;;;;;;;7.07;1.90;;;;;;;;;;4875556;29;20057;-67
2022/04/01 04:08:46;;;;;;;4.78;1.67;;;;;;;;;;4893951;29;20056;-69
2022/04/01 04:11:18;;;;;;;5.47;2.38;;;;;;;;;;4894855;29;20061;-68
2022/04/01 04:14:04;;;;;;;5.07;2.17;;;;;;;;;;4930241;29;20523;-68
2022/04/01 04:16:45;;;;;;;4.32;1.90;;;;;;;;;;4900336;29;20060;-67
2022/04/01 04:19:49;;;;;;;3.95;1.83;;;;;;;;;;4909446;29;20061;-67
2022/04/01 04:22:29;;;;;;;5.25;1.70;;;;;;;;;;4905797;29;20059;-67
2022/04/01 04:25:22;;;;;;;4.18;1.45;;;;;;;;;;4930603;29;20408;-67
2022/04/01 04:27:59;;;;;;;3.70;1.73;;;;;;;;;;4907073;29;20055;-67
2022/04/01 04:30:34;;;;;;;4.13;1.40;;;;;;;;;;4955051;29;20063;-67
2022/04/01 04:33:33;;;;;;;2.50;1.27;;;;;;;;;;4954600;29;20054;-67
2022/04/01 04:36:05;;;;;;;2.85;1.60;;;;;;;;;;4954434;29;20070;-68
2022/04/01 04:38:55;;;;;;;6.47;1.95;;;;;;;;;;4942988;29;20056;-67
2022/04/01 04:41:26;;;;;;;2.50;1.27;;;;;;;;;;4896086;29;20053;-67
2022/04/01 04:44:10;;;;;;;4.00;1.48;;;;;;;;;;4931196;28;20051;-67
2022/04/01 04:46:43;;;;;;;3.83;2.05;;;;;;;;;;4961906;28;20059;-67
2022/04/01 04:49:18;;;;;;;4.80;1.60;;;;;;;;;;4969935;28;20085;-68
2022/04/01 04:51:49;;;;;;;3.92;2.30;;;;;;;;;;4954533;29;20059;-67
2022/04/01 04:54:25;;;;;;;4.53;2.10;;;;;;;;;;4918393;29;20050;-67
2022/04/01 04:57:15;;;;;;;2.95;1.40;;;;;;;;;;4929610;29;20440;-67
2022/04/01 04:59:48;;;;;;;5.60;1.63;;;;;;;;;;4899977;29;20070;-67
2022/04/01 05:02:42;;;;;;;6.20;2.00;;;;;;;;;;4915233;29;20057;-66
2022/04/01 05:05:37;;;;;;;4.82;1.70;;;;;;;;;;4897007;29;20056;-67
2022/04/01 05:09:00;;;;;;;4.43;2.00;;;;;;;;;;4897177;29;20064;-68
2022/04/01 05:12:06;;;;;;;3.35;1.50;;;;;;;;;;4934845;29;20055;-66
2022/04/01 05:15:09;;;;;;;5.40;1.50;;;;;;;;;;4947499;28;20055;-66
2022/04/01 05:17:53;;;;;;;3.63;1.30;;;;;;;;;;4860804;29;20053;-67
2022/04/01 05:20:33;;;;;;;6.25;1.75;;;;;;;;;;4874827;29;20058;-67
2022/04/01 05:23:15;;;;;;;3.78;1.67;;;;;;;;;;4878140;29;20057;-67
2022/04/01 05:26:12;;;;;;;3.10;1.60;;;;;;;;;;4875927;29;20053;-66
2022/04/01 05:29:18;;;;;;;4.40;1.95;;;;;;;;;;4866335;29;20060;-67
2022/04/01 05:32:05;;;;;;;3.40;1.20;;;;;;;;;;4885443;29;20052;-66
2022/04/01 05:34:46;;;;;;;6.22;1.40;;;;;;;;;;4881661;29;20053;-67
2022/04/01 05:37:18;;;;;;;4.20;1.25;;;;;;;;;;4873512;29;20533;-67
2022/04/01 05:39:50;;;;;;;3.78;1.85;;;;;;;;;;4893347;29;20124;-67
2022/04/01 05:42:25;;;;;;;4.65;1.33;;;;;;;;;;4863624;29;20643;-66
2022/04/01 05:45:21;;;;;;;3.78;1.80;;;;;;;;;;4877819;29;20064;-67
2022/04/01 05:47:53;;;;;;;5.85;1.58;;;;;;;;;;4877879;29;20057;-67
2022/04/01 05:50:26;;;;;;;4.30;1.20;;;;;;;;;;4877735;29;20061;-67
2022/04/01 05:52:57;;;;;;;3.33;1.42;;;;;;;;;;4829182;29;20065;-67
2022/04/01 05:55:28;;;;;;;6.30;1.40;;;;;;;;;;4840825;29;20720;-67
2022/04/01 05:58:05;;;;;;;4.07;1.30;;;;;;;;;;4874373;29;20068;-67
2022/04/01 06:01:00;;;;;;;3.80;1.67;;;;;;;;;;4868700;29;20057;-66
2022/04/01 06:03:54;;;;;;;5.47;1.92;;;;;;;;;;4874140;29;20197;-67
2022/04/01 06:06:41;;;;;;;6.30;2.22;;;;;;;;;;4912123;29;20058;-67
2022/04/01 06:09:35;;;;;;;3.65;1.50;;;;;;;;;;4918338;29;20610;-66
2022/04/01 06:12:35;;;;;;;5.95;1.40;;;;;;;;;;4933981;29;20555;-67
2022/04/01 06:15:39;;;;;;;3.75;1.90;;;;;;;;;;4934412;29;20052;-66
2022/04/01 06:18:34;;;;;;;3.53;1.50;;;;;;;;;;4934573;29;20063;-67
2022/04/01 06:21:07;;;;;;;3.42;1.80;;;;;;;;;;4982809;28;20055;-67
2022/04/01 06:23:43;;;;;;;6.20;1.83;;;;;;;;;;4952812;29;20066;-67
2022/04/01 06:26:14;;;;;;;4.72;1.25;;;;;;;;;;4952769;29;20082;-67
2022/04/01 06:29:01;;;;;;;2.83;1.40;;;;;;;;;;4987225;28;20058;-67
2022/04/01 06:31:33;;;;;;;3.15;1.30;;;;;;;;;;4957736;28;20059;-67
2022/04/01 06:34:15;;;;;;;2.92;1.35;;;;;;;;;;4917951;29;20051;-66
2022/04/01 06:37:28;;;;;;;3.92;1.27;;;;;;;;;;4880634;29;20545;-66
2022/04/01 06:40:12;;;;;;;6.10;1.42;;;;;;;;;;4859189;29;20069;-67
2022/04/01 06:42:53;;;;;;;4.85;1.48;;;;;;;;;;4875377;29;20074;-66
2022/04/01 06:45:47;;;;;;;3.13;1.58;;;;;;;;;;4877964;29;20059;-67
2022/04/01 06:48:35;;;;;;;2.20;1.33;;;;;;;;;;4895588;29;20101;-67
2022/04/01 06:51:24;;;;;;;2.58;1.27;;;;;;;;;;4882930;29;20061;-67
2022/04/01 06:54:13;;;;;;;4.15;1.33;;;;;;;;;;4869736;29;20432;-67
2022/04/01 06:57:15;;;;;;;3.38;1.48;;;;;;;;;;4887847;29;20052;-67
2022/04/01 07:00:09;;;;;;;4.90;2.60;;;;;;;;;;4840100;29;20058;-67
2022/04/01 07:02:41;;;;;;;3.00;1.20;;;;;;;;;;4854508;29;20062;-67
2022/04/01 07:05:12;;;;;;;5.72;1.60;;;;;;;;;;4839716;29;20065;-67
2022/04/01 07:07:44;;;;;;;3.30;1.50;;;;;;;;;;4857989;29;20430;-67
2022/04/01 07:10:15;;;;;;;3.13;1.20;;;;;;;;;;4842721;29;20081;-67
2022/04/01 07:12:46;;;;;;;3.95;1.50;;;;;;;;;;4867909;29;20057;-67
2022/04/01 07:15:16;;;;;;;4.10;1.40;;;;;;;;;;4901380;29;20110;-67
2022/04/01 07:17:47;;;;;;;3.70;1.40;;;;;;;;;;4933237;29;20051;-67
2022/04/01 07:20:17;;;;;;;3.45;1.35;;;;;;;;;;4948183;29;20063;-66
2022/04/01 07:22:51;;;;;;;3.67;1.83;;;;;;;;;;4949782;28;20059;-68
2022/04/01 07:25:23;;;;;;;3.67;1.60;;;;;;;;;;4971284;28;20066;-67
2022/04/01 07:27:54;;;;;;;3.53;1.70;;;;;;;;;;4932446;29;20051;-66
2022/04/01 07:30:26;;;;;;;3.08;1.60;;;;;;;;;;4932842;29;20437;-68
2022/04/01 07:32:59;;;;;;;5.40;1.88;;;;;;;;;;4950400;28;20077;-67
2022/04/01 07:35:30;;;;;;;2.30;1.40;;;;;;;;;;4916563;29;20052;-67
2022/04/01 07:38:00;;;;;;;5.15;1.63;;;;;;;;;;4916741;29;20055;-66
2022/04/01 07:40:31;;;;;;;3.55;1.58;;;;;;;;;;4913534;29;20060;-67
2022/04/01 07:43:02;;;;;;;2.53;1.23;;;;;;;;;;4932231;29;20495;-67
2022/04/01 07:45:37;;;;;;;4.70;1.38;;;;;;;;;;4932505;29;20165;-66
2022/04/01 07:48:08;;;;;;;5.28;1.10;;;;;;;;;;4900530;29;20063;-67
2022/04/01 07:50:39;;;;;;;4.55;1.40;;;;;;;;;;4917191;29;20059;-67
2022/04/01 07:53:09;;;;;;;3.75;1.60;;;;;;;;;;4932448;29;20066;-67
2022/04/01 07:55:43;;;;;;;3.78;1.33;;;;;;;;;;4894315;29;20063;-67
2022/04/01 07:58:13;;;;;;;4.90;1.38;;;;;;;;;;4863600;29;20072;-67
2022/04/01 08:01:00;;;;;;;2.92;1.33;;;;;;;;;;4913062;29;20059;-67
2022/04/01 08:03:30;;;;;;;4.53;1.83;;;;;;;;;;4897639;29;20063;-67
2022/04/01 08:06:01;;;;;;;3.88;1.70;;;;;;;;;;4940673;28;20389;-66
2022/04/01 08:08:32;;;;;;;6.95;1.40;;;;;;;;;;4951320;29;20554;-66
2022/04/01 08:11:02;;;;;;;3.03;1.23;;;;;;;;;;4935633;29;20055;-67
2022/04/01 08:13:34;;;;;;;2.90;1.35;;;;;;;;;;4977632;28;20073;-67
2022/04/01 08:16:05;;;;;;;5.82;1.50;;;;;;;;;;4974365;28;20046;-67
2022/04/01 08:18:35;;;;;;;3.30;1.73;;;;;;;;;;4984113;28;20062;-65
2022/04/01 08:21:07;;;;;;;5.88;1.83;;;;;;;;;;4990104;28;20081;-67
2022/04/01 08:23:37;;;;;;;4.38;2.38;;;;;;;;;;4957936;28;20058;-67
2022/04/01 08:26:10;;;;;;;5.20;1.50;;;;;;;;;;4974004;28;20510;-67
2022/04/01 08:28:41;;;;;;;4.85;1.75;;;;;;;;;;4989890;28;20046;-66
2022/04/01 08:31:11;;;;;;;8.75;2.33;;;;;;;;;;4926231;28;20057;-66
2022/04/01 08:33:43;;;;;;;3.65;1.55;;;;;;;;;;4990065;28;20059;-67
2022/04/01 08:36:14;;;;;;;3.95;1.48;;;;;;;;;;4989693;28;20054;-67
2022/04/01 08:38:45;;;;;;;10.02;1.73;;;;;;;;;;4959555;28;20054;-67
2022/04/01 08:41:20;;;;;;;3.15;1.88;;;;;;;;;;4956340;28;20053;-67
2022/04/01 08:43:52;;;;;;;3.95;1.40;;;;;;;;;;4970268;28;20070;-67
2022/04/01 08:46:24;;;;;;;3.53;1.42;;;;;;;;;;4970576;28;20054;-66
2022/04/01 08:48:55;;;;;;;5.13;1.25;;;;;;;;;;4970406;28;20059;-64
2022/04/01 08:51:28;;;;;;;4.82;1.67;;;;;;;;;;4970463;28;20051;-67
2022/04/01 08:53:59;;;;;;;3.65;1.20;;;;;;;;;;4970368;28;20054;-66
2022/04/01 08:56:30;;;;;;;8.57;1.52;;;;;;;;;;4985898;28;20441;-67
2022/04/01 08:59:01;;;;;;;3.05;1.58;;;;;;;;;;4970319;28;20160;-66
2022/04/01 09:01:42;;;;;;;3.95;1.30;;;;;;;;;;4973213;28;20061;-67
2022/04/01 09:04:23;;;;;;;5.05;1.52;;;;;;;;;;4973838;28;20077;-67
2022/04/01 09:06:54;;;;;;;3.63;1.40;;;;;;;;;;4943105;28;20058;-67
2022/04/01 09:09:29;;;;;;;5.65;1.75;;;;;;;;;;4973275;28;20055;-68
2022/04/01 09:12:13;;;;;;;7.68;2.95;;;;;;;;;;4913580;28;20047;-68
2022/04/01 09:14:55;;;;;;;4.63;2.25;;;;;;;;;;4973486;28;20055;-67
2022/04/01 10:42:40;;;;;;;17.95;4.35;;;;;;;;;;5073068;28;20422;-68
2022/04/01 10:45:31;;;;;;;8.25;3.80;;;;;;;;;;5037760;28;20500;-68
2022/04/01 10:51:44;;;;;;;9.57;3.33;;;;;;;;;;5072689;28;20403;-67
2022/04/01 10:54:16;;;;;;;8.63;3.33;;;;;;;;;;4994353;28;20056;-67
2022/04/01 10:57:05;;;;;;;9.77;4.32;;;;;;;;;;5010702;28;20045;-67
2022/04/01 10:59:43;;;;;;;6.22;2.67;;;;;;;;;;5010473;28;20106;-66
2022/04/01 11:02:19;;;;;;;8.00;3.08;;;;;;;;;;4994531;28;20382;-67
2022/04/01 11:04:53;;;;;;;10.27;3.22;;;;;;;;;;5010538;28;20100;-67
2022/04/01 11:07:27;;;;;;;8.48;3.17;;;;;;;;;;4994162;28;20065;-68
2022/04/01 11:10:00;;;;;;;6.47;2.50;;;;;;;;;;4961653;28;20056;-66
2022/04/01 11:12:39;;;;;;;5.68;2.33;;;;;;;;;;4961549;28;20057;-67
2022/04/01 11:15:11;;;;;;;9.23;3.92;;;;;;;;;;4946273;28;20057;-67
2022/04/01 11:17:47;;;;;;;6.38;2.55;;;;;;;;;;5010175;28;20514;-67
2022/04/01 11:20:26;;;;;;;5.60;2.92;;;;;;;;;;5010465;28;20052;-68
2022/04/01 11:23:10;;;;;;;8.13;4.75;;;;;;;;;;4985361;28;20062;-67
2022/04/01 11:25:44;;;;;;;9.25;4.45;;;;;;;;;;4971005;28;20055;-67
2022/04/01 11:28:16;;;;;;;7.60;3.53;;;;;;;;;;4971032;28;20066;-67
2022/04/01 11:30:54;;;;;;;6.95;4.30;;;;;;;;;;5011448;28;20400;-67
2022/04/01 11:33:24;;;;;;;9.88;4.10;;;;;;;;;;5049598;28;20045;-68
2022/04/01 11:35:57;;;;;;;6.97;3.63;;;;;;;;;;5049484;28;20079;-67
2022/04/01 11:38:30;;;;;;;7.93;3.53;;;;;;;;;;5016533;28;20068;-67
2022/04/01 11:41:03;;;;;;;8.55;3.47;;;;;;;;;;5049134;28;20064;-67
2022/04/01 11:43:37;;;;;;;6.13;3.65;;;;;;;;;;5002478;28;20156;-67
2022/04/01 11:46:10;;;;;;;8.05;3.90;;;;;;;;;;5016145;28;20048;-68
2022/04/01 11:48:44;;;;;;;10.55;3.55;;;;;;;;;;5033823;28;20064;-68
2022/04/01 11:51:17;;;;;;;7.22;3.60;;;;;;;;;;5016022;28;20049;-67
2022/04/01 11:53:53;;;;;;;5.70;3.40;;;;;;;;;;5012996;28;20060;-67
2022/04/01 11:56:27;;;;;;;8.80;2.45;;;;;;;;;;4992961;28;20065;-68
2022/04/01 11:59:01;;;;;;;4.78;2.30;;;;;;;;;;4970499;28;20058;-68
2022/04/01 12:01:35;;;;;;;6.38;3.05;;;;;;;;;;4986900;28;20054;-66
2022/04/01 12:04:14;;;;;;;6.72;2.25;;;;;;;;;;4957976;28;20410;-70
2022/04/01 12:09:34;;;;;;;8.00;3.42;;;;;;;;;;4935235;29;20314;-67
2022/04/01 12:12:05;;;;;;;8.30;3.92;;;;;;;;;;4903912;29;20171;-68
2022/04/01 12:14:38;;;;;;;13.45;4.55;;;;;;;;;;4951002;29;20059;-68
2022/04/01 12:17:10;;;;;;;14.25;4.50;;;;;;;;;;4916508;29;20054;-66
2022/04/01 12:19:41;;;;;;;14.82;4.60;;;;;;;;;;4932150;29;20067;-69
2022/04/01 12:22:11;;;;;;;20.67;4.00;;;;;;;;;;4900662;29;20063;-66
2022/04/01 12:24:42;;;;;;;21.65;4.57;;;;;;;;;;4893797;29;20052;-66
2022/04/01 12:27:13;;;;;;;12.65;3.30;;;;;;;;;;4894275;29;20057;-66
2022/04/01 12:29:47;;;;;;;7.00;2.78;;;;;;;;;;4863219;29;20083;-66
2022/04/01 12:32:17;;;;;;;6.75;2.58;;;;;;;;;;4879034;29;20064;-68
2022/04/01 12:34:49;;;;;;;8.68;3.20;;;;;;;;;;4930890;29;20064;-68
2022/04/01 12:37:19;;;;;;;3.80;2.10;;;;;;;;;;4961274;28;20061;-68
2022/04/01 12:39:57;;;;;;;5.75;2.28;;;;;;;;;;4973957;28;20058;-67
2022/04/01 12:42:36;;;;;;;6.20;1.60;;;;;;;;;;4954218;29;20051;-68
2022/04/01 12:45:12;;;;;;;7.40;2.83;;;;;;;;;;4954396;28;20055;-67
2022/04/01 12:47:42;;;;;;;4.78;2.08;;;;;;;;;;4952095;28;20047;-68
2022/04/01 12:50:32;;;;;;;5.20;2.33;;;;;;;;;;4954437;28;20059;-66
2022/04/01 12:53:13;;;;;;;10.52;3.92;;;;;;;;;;4931465;29;20048;-67
2022/04/01 12:55:44;;;;;;;7.82;2.42;;;;;;;;;;4902953;29;20067;-67
2022/04/01 12:58:14;;;;;;;5.70;2.58;;;;;;;;;;4881575;29;20052;-67
2022/04/01 13:00:45;;;;;;;9.50;4.45;;;;;;;;;;4942469;29;20439;-66
2022/04/01 13:03:16;;;;;;;7.03;2.35;;;;;;;;;;4890769;29;20448;-66
2022/04/01 13:06:10;;;;;;;4.40;2.05;;;;;;;;;;4896533;29;20061;-66
2022/04/01 13:08:40;;;;;;;6.38;3.85;;;;;;;;;;4869012;29;20059;-65
2022/04/01 13:11:12;;;;;;;4.35;2.35;;;;;;;;;;4912534;29;20053;-67
2022/04/01 13:13:52;;;;;;;5.53;2.65;;;;;;;;;;4912338;29;20529;-67
2022/04/01 13:16:22;;;;;;;6.80;2.35;;;;;;;;;;4896488;29;20052;-66
2022/04/01 13:18:53;;;;;;;3.53;2.10;;;;;;;;;;4912165;29;20560;-68
2022/04/01 13:21:24;;;;;;;6.85;2.65;;;;;;;;;;4934998;29;20475;-67
2022/04/01 13:23:55;;;;;;;5.28;1.98;;;;;;;;;;4957904;28;20404;-66
2022/04/01 13:26:26;;;;;;;8.38;4.45;;;;;;;;;;4973087;28;20047;-68
2022/04/01 13:28:57;;;;;;;5.88;1.60;;;;;;;;;;4973199;28;20051;-64
2022/04/01 13:31:28;;;;;;;5.57;1.92;;;;;;;;;;4973227;28;20414;-67
2022/04/01 13:33:58;;;;;;;4.35;2.05;;;;;;;;;;4957262;28;20062;-66
2022/04/01 13:36:31;;;;;;;5.65;2.00;;;;;;;;;;4973080;28;20055;-68
2022/04/01 13:39:01;;;;;;;4.88;2.20;;;;;;;;;;4940879;28;20051;-68
2022/04/01 13:41:32;;;;;;;3.90;1.20;;;;;;;;;;4970710;28;20058;-67
2022/04/01 13:44:04;;;;;;;6.30;1.67;;;;;;;;;;5012009;28;20058;-66
2022/04/01 13:46:35;;;;;;;6.45;1.92;;;;;;;;;;5011263;28;20054;-67
2022/04/01 13:49:06;;;;;;;7.50;1.20;;;;;;;;;;5009890;28;20529;-68
2022/04/01 13:51:40;;;;;;;3.72;1.63;;;;;;;;;;5012149;28;20105;-67
2022/04/01 13:54:11;;;;;;;3.50;0.75;;;;;;;;;;4985273;28;20539;-67
2022/04/01 13:56:42;;;;;;;3.50;1.50;;;;;;;;;;5051970;28;20045;-66
2022/04/01 13:59:13;;;;;;;2.75;1.38;;;;;;;;;;5011606;28;20053;-70
2022/04/01 14:01:44;;;;;;;4.47;1.13;;;;;;;;;;5011887;28;20085;-67
2022/04/01 14:04:16;;;;;;;4.25;2.20;;;;;;;;;;5034302;28;20504;-69
2022/04/01 14:06:49;;;;;;;6.18;1.15;;;;;;;;;;5051708;28;20041;-66
2022/04/01 14:09:22;;;;;;;3.28;1.08;;;;;;;;;;5051230;28;20055;-66
2022/04/01 14:12:13;;;;;;;2.22;1.17;;;;;;;;;;5051112;28;20107;-68
2022/04/01 14:14:46;;;;;;;2.75;0.68;;;;;;;;;;5031231;28;20413;-67
2022/04/01 14:17:16;;;;;;;;;;;;;;;;;;4998751;28;20452;-67
2022/04/01 14:19:47;;;;;;;2.20;0.80;;;;;;;;;;5030859;28;19920;-69
2022/04/01 14:22:17;;;;;;;2.15;1.10;;;;;;;;;;5031251;28;20050;-68
2022/04/01 14:24:48;;;;;;;2.83;1.30;;;;;;;;;;5007552;28;20438;-67
2022/04/01 14:27:19;;;;;;;7.78;1.23;;;;;;;;;;4959330;28;20450;-68
2022/04/01 14:32:38;;;;;;;2.67;1.17;;;;;;;;;;4991517;28;20065;-67
2022/04/01 14:35:09;;;;;;;7.45;1.63;;;;;;;;;;4991645;28;20554;-66
2022/04/01 14:37:40;;;;;;;4.55;1.40;;;;;;;;;;5008063;28;20050;-67
2022/04/01 14:40:11;;;;;;;4.10;2.30;;;;;;;;;;5010718;28;20050;-68
2022/04/01 14:42:43;;;;;;;2.90;1.40;;;;;;;;;;5010864;28;20046;-68
2022/04/01 14:45:15;;;;;;;7.65;1.63;;;;;;;;;;5011024;28;20060;-68
2022/04/01 14:47:46;;;;;;;2.75;1.20;;;;;;;;;;4947310;28;20054;-67
2022/04/01 14:50:17;;;;;;;6.10;1.70;;;;;;;;;;4971374;28;20050;-68
2022/04/01 14:52:47;;;;;;;5.82;1.13;;;;;;;;;;4983956;28;20121;-70
2022/04/01 14:55:18;;;;;;;2.30;1.02;;;;;;;;;;4987861;28;20058;-67
2022/04/01 14:57:50;;;;;;;5.57;2.20;;;;;;;;;;4988071;28;20533;-68
2022/04/01 15:00:21;;;;;;;5.35;1.42;;;;;;;;;;4974846;28;20529;-69
2022/04/01 15:02:52;;;;;;;4.70;1.13;;;;;;;;;;4956039;28;20062;-71
2022/04/01 15:05:24;;;;;;;3.10;1.95;;;;;;;;;;5009520;28;20046;-70
2022/04/01 15:07:56;;;;;;;3.65;1.60;;;;;;;;;;5002474;28;20065;-69
2022/04/01 15:10:27;;;;;;;4.05;1.60;;;;;;;;;;4995902;28;20062;-68
2022/04/01 15:12:57;;;;;;;4.93;1.52;;;;;;;;;;4992385;28;20053;-66
2022/04/01 15:15:28;;;;;;;2.20;1.30;;;;;;;;;;4990619;28;20053;-69
2022/04/01 15:18:00;;;;;;;4.25;0.93;;;;;;;;;;4990638;28;20062;-74
2022/04/01 15:20:30;;;;;;;;;;;;;;;;;;4991247;28;20057;-71
2022/04/01 15:23:00;;;;;;;3.33;1.42;;;;;;;;;;4958921;28;19921;-69
2022/04/01 15:25:31;;;;;;;2.85;1.17;;;;;;;;;;4990712;28;20047;-69
2022/04/01 15:28:02;;;;;;;2.10;1.33;;;;;;;;;;4972566;28;20062;-69
2022/04/01 15:30:32;;;;;;;4.13;1.73;;;;;;;;;;4922943;28;20050;-69
2022/04/01 15:33:03;;;;;;;3.17;1.30;;;;;;;;;;4971157;28;20174;-69
2022/04/01 15:35:34;;;;;;;5.25;1.30;;;;;;;;;;4939791;28;20055;-69
2022/04/01 15:38:11;;;;;;;5.45;1.30;;;;;;;;;;4923369;28;20432;-68
2022/04/01 15:40:42;;;;;;;6.45;1.40;;;;;;;;;;4937628;28;20400;-69
2022/04/01 15:43:12;;;;;;;4.38;1.63;;;;;;;;;;4951692;28;20047;-70
2022/04/01 15:45:44;;;;;;;2.10;1.08;;;;;;;;;;4936023;29;20554;-71
2022/04/01 15:48:15;;;;;;;4.68;1.60;;;;;;;;;;4951567;28;20047;-69
2022/04/01 15:50:46;;;;;;;2.25;1.20;;;;;;;;;;4952002;28;20443;-72
2022/04/01 15:53:16;;;;;;;3.53;1.10;;;;;;;;;;4951607;28;20416;-69
2022/04/01 15:55:47;;;;;;;2.75;1.02;;;;;;;;;;4950885;28;20058;-68
2022/04/01 15:58:21;;;;;;;2.40;1.00;;;;;;;;;;4951400;28;20614;-70
2022/04/01 16:00:55;;;;;;;4.50;1.10;;;;;;;;;;4951777;28;20067;-69
2022/04/01 16:03:29;;;;;;;1.88;0.82;;;;;;;;;;4951633;28;20050;-71
2022/04/01 16:06:00;;;;;;;2.28;1.40;;;;;;;;;;4932082;28;20058;-69
2022/04/01 16:08:32;;;;;;;2.17;0.90;;;;;;;;;;4995850;28;20054;-72
2022/04/01 16:11:06;;;;;;;3.60;0.95;;;;;;;;;;4949875;28;20528;-69
2022/04/01 16:13:38;;;;;;;4.10;1.50;;;;;;;;;;4981276;28;20050;-68
2022/04/01 16:16:09;;;;;;;3.22;1.42;;;;;;;;;;4958367;28;20058;-69
2022/04/01 16:18:40;;;;;;;3.83;1.10;;;;;;;;;;4942273;28;20062;-68
2022/04/01 16:21:11;;;;;;;3.45;1.52;;;;;;;;;;4996274;28;20417;-69
2022/04/01 16:23:42;;;;;;;3.72;1.80;;;;;;;;;;5033464;28;20045;-70
2022/04/01 16:26:13;;;;;;;3.28;1.35;;;;;;;;;;4984499;28;20054;-71
2022/04/01 16:28:44;;;;;;;2.63;0.98;;;;;;;;;;5033237;28;20064;-68
2022/04/01 16:31:15;;;;;;;2.83;1.02;;;;;;;;;;5033550;28;20041;-70
2022/04/01 16:33:47;;;;;;;4.38;1.00;;;;;;;;;;5033254;28;20409;-69
2022/04/01 16:36:18;;;;;;;3.80;1.63;;;;;;;;;;5033356;28;20049;-72
2022/04/01 16:38:49;;;;;;;3.80;2.00;;;;;;;;;;4999965;28;20492;-68
2022/04/01 16:41:19;;;;;;;3.30;1.83;;;;;;;;;;5000362;28;20057;-70
2022/04/01 16:43:50;;;;;;;5.72;1.42;;;;;;;;;;5033398;28;20053;-70
2022/04/01 16:46:21;;;;;;;3.45;1.35;;;;;;;;;;5033209;28;20054;-70
2022/04/01 16:48:53;;;;;;;6.55;1.63;;;;;;;;;;5033122;28;20045;-69
2022/04/01 16:51:23;;;;;;;4.50;1.55;;;;;;;;;;5033098;28;20049;-69
2022/04/01 16:53:53;;;;;;;7.97;1.42;;;;;;;;;;5045203;28;20056;-70
2022/04/01 16:56:24;;;;;;;6.60;1.10;;;;;;;;;;5055172;28;20122;-68
2022/04/01 16:58:55;;;;;;;3.83;1.30;;;;;;;;;;5036141;28;20052;-70
2022/04/01 17:01:26;;;;;;;2.75;1.42;;;;;;;;;;5052918;28;20112;-69
2022/04/01 17:03:57;;;;;;;3.13;1.30;;;;;;;;;;5036198;28;20413;-69
2022/04/01 17:14:55;;;;;;;3.50;1.35;;;;;;;;;;4979552;28;20053;-70